createdAt,value
2023-01-11T00:01:31.457Z,99154.13
2023-01-11T00:05:56.666Z,99168.47
2023-01-11T00:10:04.875Z,99160.19
2023-01-11T00:14:08.732Z,99151.47
2023-01-11T00:18:12.964Z,99147.34
2023-01-11T00:22:16.086Z,99133.50
2023-01-11T00:26:23.936Z,99148.94
2023-01-11T00:30:26.876Z,99113.50
2023-01-11T00:34:29.899Z,99151.09
2023-01-11T00:38:46.986Z,99143.31
2023-01-11T00:43:13.995Z,99141.03
2023-01-11T00:47:35.006Z,99141.59
2023-01-11T00:51:37.993Z,99131.69
2023-01-11T00:55:41.126Z,99109.94
2023-01-11T00:59:45.411Z,99077.78
2023-01-11T01:03:49.461Z,99122.59
2023-01-11T01:07:54.361Z,99131.13
2023-01-11T01:11:57.445Z,99116.75
2023-01-11T01:16:06.217Z,99088.16
2023-01-11T01:20:10.154Z,99116.97
2023-01-11T01:24:13.355Z,99119.63
2023-01-11T01:28:16.815Z,99119.75
2023-01-11T01:32:21.193Z,99106.47
2023-01-11T01:36:25.057Z,99109.63
2023-01-11T01:40:32.335Z,99106.75
2023-01-11T01:44:56.814Z,99109.38
2023-01-11T01:49:06.050Z,99101.84
2023-01-11T01:53:11.194Z,99114.66
2023-01-11T01:57:17.798Z,99100.47
2023-01-11T02:01:38.765Z,99095.34
2023-01-11T02:05:43.880Z,99091.69
2023-01-11T02:09:53.307Z,99075.56
2023-01-11T02:13:57.648Z,99068.91
2023-01-11T02:18:04.965Z,99080.97
2023-01-11T02:22:55.927Z,99043.31
2023-01-11T02:27:14.132Z,99027.06
2023-01-11T02:31:29.986Z,99079.47
2023-01-11T02:35:38.897Z,99044.34
2023-01-11T02:39:51.960Z,99067.69
2023-01-11T02:44:21.569Z,99048.25
2023-01-11T02:48:32.135Z,99027.88
2023-01-11T02:52:42.277Z,99050.53
2023-01-11T02:56:49.200Z,99032.59
2023-01-11T03:00:52.547Z,99038.06
2023-01-11T03:05:02.984Z,99029.72
2023-01-11T03:09:16.332Z,99012.34
2023-01-11T03:13:25.981Z,99006.94
2023-01-11T03:17:40.627Z,99008.34
2023-01-11T03:22:01.442Z,99020.69
2023-01-11T03:26:17.047Z,99026.16
2023-01-11T03:30:25.809Z,99026.03
2023-01-11T03:34:33.456Z,99008.91
2023-01-11T03:38:42.831Z,99013.72
2023-01-11T03:43:01.938Z,98998.97
2023-01-11T03:47:09.121Z,99014.28
2023-01-11T03:51:14.274Z,99012.41
2023-01-11T03:55:24.470Z,99010.25
2023-01-11T03:59:27.259Z,99011.63
2023-01-11T04:03:32.694Z,99001.00
2023-01-11T04:07:36.118Z,98993.78
2023-01-11T04:11:40.902Z,98991.06
2023-01-11T04:15:43.925Z,98988.28
2023-01-11T04:19:47.633Z,98982.56
2023-01-11T04:23:50.737Z,98987.94
2023-01-11T04:27:56.577Z,98976.06
2023-01-11T04:32:00.503Z,98965.13
2023-01-11T04:36:06.988Z,98976.16
2023-01-11T04:40:12.641Z,98973.53
2023-01-11T04:44:18.746Z,98968.13
2023-01-11T04:48:21.467Z,98963.19
2023-01-11T04:52:30.653Z,98960.09
2023-01-11T04:56:39.007Z,98960.22
2023-01-11T05:00:55.173Z,98953.22
2023-01-11T05:04:59.865Z,98946.81
2023-01-11T05:09:03.821Z,98925.75
2023-01-11T05:13:06.598Z,98922.09
2023-01-11T05:17:21.615Z,98935.94
2023-01-11T05:21:30.047Z,98932.25
2023-01-11T05:25:37.875Z,98927.81
2023-01-11T05:29:44.616Z,98925.50
2023-01-11T05:33:50.112Z,98923.13
2023-01-11T05:37:52.780Z,98921.00
2023-01-11T05:41:56.171Z,98918.38
2023-01-11T05:46:01.686Z,98922.72
2023-01-11T05:50:07.827Z,98920.31
2023-01-11T05:54:13.949Z,98904.63
2023-01-11T05:58:19.593Z,98906.22
2023-01-11T06:02:24.832Z,98888.00
2023-01-11T06:06:31.654Z,98890.06
2023-01-11T06:10:36.203Z,98886.13
2023-01-11T06:14:39.601Z,98884.78
2023-01-11T06:18:45.680Z,98890.59
2023-01-11T06:22:52.012Z,98899.13
2023-01-11T06:26:56.335Z,98893.47
2023-01-11T06:31:02.404Z,98890.09
2023-01-11T06:35:06.858Z,98894.91
2023-01-11T06:39:12.495Z,98890.09
2023-01-11T06:43:17.160Z,98879.00
2023-01-11T06:47:19.936Z,98865.91
2023-01-11T06:51:23.868Z,98882.84
2023-01-11T06:55:32.808Z,98883.88
2023-01-11T06:59:39.711Z,98901.38
2023-01-11T07:03:49.666Z,98893.47
2023-01-11T07:07:53.078Z,98881.72
2023-01-11T07:12:05.312Z,98890.28
2023-01-11T07:16:13.386Z,98882.16
2023-01-11T07:20:25.361Z,98886.34
2023-01-11T07:24:29.380Z,98871.66
2023-01-11T07:28:34.429Z,98886.84
2023-01-11T07:32:40.318Z,98892.19
2023-01-11T07:36:44.929Z,98888.75
2023-01-11T07:40:47.844Z,98867.28
2023-01-11T07:44:52.508Z,98889.41
2023-01-11T07:48:55.402Z,98888.38
2023-01-11T07:53:00.671Z,98884.47
2023-01-11T07:57:03.546Z,98879.19
2023-01-11T08:01:08.060Z,98872.97
2023-01-11T08:05:13.230Z,98877.13
2023-01-11T08:09:16.092Z,98841.91
2023-01-11T08:13:36.607Z,98868.56
2023-01-11T08:17:44.306Z,98885.75
2023-01-11T08:21:47.005Z,98887.44
2023-01-11T08:25:49.703Z,98877.75
2023-01-11T08:29:52.495Z,98856.13
2023-01-11T08:33:57.320Z,98905.47
2023-01-11T08:38:07.096Z,98913.44
2023-01-11T08:42:11.072Z,98909.84
2023-01-11T08:46:14.730Z,98912.75
2023-01-11T08:50:22.923Z,98915.59
2023-01-11T08:54:26.711Z,98909.63
2023-01-11T08:58:39.952Z,98894.84
2023-01-11T09:02:49.228Z,98894.84
2023-01-11T09:06:55.731Z,98922.25
2023-01-11T09:11:31.151Z,98931.97
2023-01-11T09:15:38.586Z,98954.69
2023-01-11T09:19:44.472Z,98960.59
2023-01-11T09:23:52.681Z,99011.72
2023-01-11T09:27:56.648Z,99007.19
2023-01-11T09:32:09.149Z,98993.53
2023-01-11T09:36:15.618Z,98985.75
2023-01-11T09:40:24.297Z,98959.25
2023-01-11T09:44:29.921Z,99001.75
2023-01-11T09:48:37.389Z,98970.19
2023-01-11T09:52:43.939Z,98989.44
2023-01-11T10:06:33.136Z,98987.66
2023-01-11T10:21:32.297Z,98938.94
2023-01-11T10:25:54.490Z,99018.16
2023-01-11T10:30:37.220Z,98949.25
2023-01-11T10:35:18.026Z,98995.22
2023-01-11T10:40:01.453Z,98950.66
2023-01-11T10:44:31.923Z,98962.00
2023-01-11T10:48:50.857Z,99002.47
2023-01-11T10:53:36.845Z,98989.88
2023-01-11T10:58:01.526Z,99030.31
2023-01-11T11:02:37.072Z,98969.75
2023-01-11T11:06:52.329Z,98968.28
2023-01-11T11:11:16.294Z,98973.25
2023-01-11T11:15:40.690Z,98981.91
2023-01-11T11:19:54.277Z,98979.63
2023-01-11T11:24:19.193Z,99028.34
2023-01-11T11:28:34.953Z,99008.88
2023-01-11T11:33:03.298Z,99038.91
2023-01-11T11:37:59.732Z,99031.91
2023-01-11T11:42:22.379Z,99005.97
2023-01-11T11:46:32.295Z,99006.47
2023-01-11T11:50:45.753Z,99044.56
2023-01-11T11:55:00.982Z,99005.81
2023-01-11T11:59:21.816Z,99005.38
2023-01-11T12:03:40.441Z,99026.56
2023-01-11T12:08:11.907Z,99011.94
2023-01-11T12:12:30.926Z,98998.75
2023-01-11T12:17:09.653Z,99050.69
2023-01-11T12:21:58.068Z,99067.91
2023-01-11T12:31:30.199Z,99012.81
2023-01-11T12:41:43.361Z,99011.66
2023-01-11T12:46:03.587Z,99045.81
2023-01-11T13:00:12.744Z,99074.06
2023-01-11T13:04:54.718Z,99069.28
2023-01-11T13:09:01.790Z,99072.38
2023-01-11T13:13:09.341Z,99074.25
2023-01-11T13:17:21.578Z,99087.75
2023-01-11T13:21:31.646Z,99087.66
2023-01-11T13:25:36.537Z,99099.03
2023-01-11T13:29:41.831Z,99130.91
2023-01-11T13:33:48.991Z,99100.44
2023-01-11T13:37:56.972Z,99123.63
2023-01-11T13:42:03.503Z,99134.75
2023-01-11T13:46:11.592Z,99133.59
2023-01-11T13:50:20.427Z,99099.84
2023-01-11T13:54:27.031Z,99147.91
2023-01-11T13:58:36.799Z,99151.13
2023-01-11T14:02:43.929Z,99142.88
2023-01-11T14:07:02.449Z,99169.97
2023-01-11T14:11:09.901Z,99177.88
2023-01-11T14:15:20.834Z,99165.69
2023-01-11T14:19:26.053Z,99188.19
2023-01-11T14:23:36.970Z,99157.69
2023-01-11T14:27:51.907Z,99181.84
2023-01-11T14:32:12.839Z,99204.75
2023-01-11T14:36:31.425Z,99197.41
2023-01-11T14:40:43.209Z,99207.84
2023-01-11T14:45:00.279Z,99225.97
2023-01-11T14:49:12.729Z,99208.28
2023-01-11T14:53:22.966Z,99210.75
2023-01-11T14:57:42.580Z,99233.41
2023-01-11T15:02:33.133Z,99231.69
2023-01-11T15:06:53.342Z,99182.72
2023-01-11T15:11:00.235Z,99207.81
2023-01-11T15:15:07.789Z,99217.91
2023-01-11T15:19:23.847Z,99252.47
2023-01-11T15:23:27.101Z,99272.06
2023-01-11T15:27:34.326Z,99281.03
2023-01-11T15:31:50.634Z,99298.31
2023-01-11T15:36:04.208Z,99269.75
2023-01-11T15:40:15.839Z,99270.03
2023-01-11T15:44:36.711Z,99270.97
2023-01-11T15:48:54.199Z,99283.81
2023-01-11T15:53:21.496Z,99297.28
2023-01-11T15:57:46.452Z,99302.28
2023-01-11T16:02:19.069Z,99306.69
2023-01-11T16:06:29.233Z,99318.59
2023-01-11T16:10:52.132Z,99315.47
2023-01-11T16:15:08.311Z,99329.41
2023-01-11T16:19:15.610Z,99330.50
2023-01-11T16:23:22.089Z,99332.31
2023-01-11T16:27:27.091Z,99333.06
2023-01-11T16:31:55.821Z,99333.34
2023-01-11T16:36:06.767Z,99330.91
2023-01-11T16:40:14.006Z,99350.94
2023-01-11T16:44:24.275Z,99351.13
2023-01-11T16:48:30.100Z,99349.31
2023-01-11T16:52:49.921Z,99344.97
2023-01-11T16:56:53.438Z,99381.16
2023-01-11T17:01:00.963Z,99396.81
2023-01-11T17:05:19.112Z,99390.31
2023-01-11T17:09:22.670Z,99399.28
2023-01-11T17:13:54.360Z,99378.53
2023-01-11T17:17:58.399Z,99357.44
2023-01-11T17:22:05.503Z,99403.97
2023-01-11T17:26:14.449Z,99405.34
2023-01-11T17:30:20.258Z,99405.56
2023-01-11T17:34:27.505Z,99429.06
2023-01-11T17:38:33.099Z,99434.22
2023-01-11T17:42:54.620Z,99440.63
2023-01-11T17:46:57.594Z,99436.41
2023-01-11T17:51:02.195Z,99445.50
2023-01-11T17:55:15.672Z,99448.63
2023-01-11T17:59:21.948Z,99432.72
2023-01-11T18:03:24.893Z,99464.09
2023-01-11T18:07:27.680Z,99451.56
2023-01-11T18:11:33.969Z,99501.75
2023-01-11T18:15:38.570Z,99451.22
2023-01-11T18:19:43.479Z,99473.69
2023-01-11T18:23:46.748Z,99499.59
2023-01-11T18:27:51.858Z,99506.06
2023-01-11T18:31:54.729Z,99498.97
2023-01-11T18:35:59.872Z,99509.19
2023-01-11T18:40:03.400Z,99503.34
2023-01-11T18:44:09.187Z,99515.78
2023-01-11T18:48:13.179Z,99463.03
2023-01-11T18:52:17.426Z,99513.13
2023-01-11T18:56:20.238Z,99493.63
2023-01-11T19:00:25.001Z,99509.63
2023-01-11T19:04:27.971Z,99499.88
2023-01-11T19:08:32.422Z,99525.28
2023-01-11T19:12:35.424Z,99517.22
2023-01-11T19:16:39.831Z,99529.91
2023-01-11T19:20:42.898Z,99531.44
2023-01-11T19:24:45.710Z,99524.22
2023-01-11T19:28:48.815Z,99528.63
2023-01-11T19:32:54.488Z,99542.34
2023-01-11T19:36:57.167Z,99520.16
2023-01-11T19:41:04.964Z,99553.81
2023-01-11T19:45:08.880Z,99533.97
2023-01-11T19:49:15.684Z,99533.22
2023-01-11T19:53:18.469Z,99521.09
2023-01-11T19:57:21.772Z,99503.25
2023-01-11T20:01:24.928Z,99532.19
2023-01-11T20:05:33.736Z,99513.06
2023-01-11T20:09:38.102Z,99521.06
2023-01-11T20:13:41.742Z,99499.03
2023-01-11T20:17:44.791Z,99503.63
2023-01-11T20:21:49.443Z,99519.13
2023-01-11T20:25:52.543Z,99522.19
2023-01-11T20:29:56.548Z,99503.88
2023-01-11T20:34:00.146Z,99514.16
2023-01-11T20:38:04.893Z,99496.59
2023-01-11T20:42:08.950Z,99494.78
2023-01-11T20:46:11.941Z,99508.34
2023-01-11T20:50:14.681Z,99504.75
2023-01-11T20:54:18.938Z,99494.22
2023-01-11T20:58:21.934Z,99469.59
2023-01-11T21:02:24.767Z,99516.34
2023-01-11T21:06:30.942Z,99515.47
2023-01-11T21:10:35.102Z,99502.81
2023-01-11T21:14:37.668Z,99510.47
2023-01-11T21:18:43.488Z,99497.88
2023-01-11T21:22:48.261Z,99503.19
2023-01-11T21:26:52.493Z,99501.34
2023-01-11T21:31:02.139Z,99477.84
2023-01-11T21:35:14.098Z,99489.13
2023-01-11T21:39:18.108Z,99496.06
2023-01-11T21:43:22.367Z,99486.44
2023-01-11T21:47:25.101Z,99482.25
2023-01-11T21:51:29.831Z,99475.94
2023-01-11T21:55:32.821Z,99479.75
2023-01-11T21:59:36.888Z,99494.44
2023-01-11T22:03:42.150Z,99509.53
2023-01-11T22:07:44.936Z,99494.00
2023-01-11T22:11:47.895Z,99511.13
2023-01-11T22:15:52.456Z,99522.84
2023-01-11T22:19:55.226Z,99506.41
2023-01-11T22:24:01.199Z,99462.50
2023-01-11T22:28:03.979Z,99489.41
2023-01-11T22:32:08.106Z,99511.66
2023-01-11T22:36:10.725Z,99511.59
2023-01-11T22:40:15.392Z,99491.56
2023-01-11T22:44:19.688Z,99502.66
2023-01-11T22:48:32.509Z,99497.13
2023-01-11T22:52:36.163Z,99506.00
2023-01-11T22:56:38.943Z,99487.91
2023-01-11T23:00:41.754Z,99451.66
2023-01-11T23:04:45.939Z,99473.69
2023-01-11T23:08:48.596Z,99498.63
2023-01-11T23:13:14.889Z,99500.47
2023-01-11T23:17:19.084Z,99492.19
2023-01-11T23:21:24.384Z,99475.63
2023-01-11T23:25:27.157Z,99484.97
2023-01-11T23:29:30.038Z,99485.19
2023-01-11T23:33:32.923Z,99466.41
2023-01-11T23:37:37.055Z,99464.94
2023-01-11T23:41:57.127Z,99453.41
2023-01-11T23:46:24.286Z,99446.03
2023-01-11T23:50:27.257Z,99469.78
2023-01-11T23:54:32.724Z,99464.88
2023-01-11T23:58:35.664Z,99463.72
